createdAt,value
2017-10-12T00:00:29.610Z,8.20
2017-10-12T00:02:58.092Z,8.20
2017-10-12T00:05:26.552Z,8.20
2017-10-12T00:07:55.046Z,8.20
2017-10-12T00:10:23.524Z,8.30
2017-10-12T00:12:52.023Z,8.40
2017-10-12T00:15:20.565Z,8.40
2017-10-12T00:17:49.798Z,8.30
2017-10-12T00:20:18.084Z,8.30
2017-10-12T00:22:46.535Z,8.30
2017-10-12T00:25:15.775Z,8.40
2017-10-12T00:27:45.247Z,8.50
2017-10-12T00:30:14.487Z,8.50
2017-10-12T00:32:43.475Z,8.50
2017-10-12T00:35:11.952Z,8.50
2017-10-12T00:37:40.414Z,8.40
2017-10-12T00:40:09.271Z,8.40
2017-10-12T00:42:38.636Z,8.40
2017-10-12T00:45:07.102Z,8.40
2017-10-12T00:47:35.589Z,8.50
2017-10-12T00:50:04.068Z,8.60
2017-10-12T00:52:32.649Z,8.70
2017-10-12T00:55:01.105Z,8.70
2017-10-12T00:57:30.344Z,8.60
2017-10-12T00:59:58.328Z,8.60
2017-10-12T01:02:26.459Z,8.70
2017-10-12T01:04:54.792Z,8.70
2017-10-12T01:07:23.073Z,8.60
2017-10-12T01:09:51.481Z,8.60
2017-10-12T01:12:20.520Z,8.60
2017-10-12T01:14:48.936Z,8.50
2017-10-12T01:17:17.407Z,8.50
2017-10-12T01:19:45.004Z,8.50
2017-10-12T01:22:13.690Z,8.40
2017-10-12T01:24:42.231Z,8.40
2017-10-12T01:27:10.011Z,8.30
2017-10-12T01:29:38.279Z,8.40
2017-10-12T01:32:06.752Z,8.40
2017-10-12T01:34:35.213Z,8.30
2017-10-12T01:37:02.992Z,8.30
2017-10-12T01:39:31.091Z,8.20
2017-10-12T01:41:58.872Z,8.20
2017-10-12T01:44:26.708Z,8.20
2017-10-12T01:46:55.299Z,8.20
2017-10-12T01:49:23.440Z,8.20
2017-10-12T01:51:51.586Z,8.20
2017-10-12T01:54:20.861Z,8.20
2017-10-12T01:56:50.072Z,8.20
2017-10-12T01:59:18.550Z,8.20
2017-10-12T02:01:46.340Z,8.20
2017-10-12T02:04:15.595Z,8.20
2017-10-12T02:06:44.054Z,8.20
2017-10-12T02:09:12.651Z,8.30
2017-10-12T02:11:41.214Z,8.30
2017-10-12T02:14:09.691Z,8.20
2017-10-12T02:16:38.158Z,8.10
2017-10-12T02:19:07.396Z,8.10
2017-10-12T02:21:35.851Z,8.00
2017-10-12T02:24:04.343Z,8.10
2017-10-12T02:26:32.495Z,8.10
2017-10-12T02:29:01.542Z,8.10
2017-10-12T02:31:29.688Z,8.00
2017-10-12T02:33:57.982Z,7.90
2017-10-12T02:36:26.433Z,7.90
2017-10-12T02:38:55.671Z,7.90
2017-10-12T02:41:23.788Z,7.80
2017-10-12T02:43:52.845Z,7.80
2017-10-12T02:46:21.122Z,7.70
2017-10-12T02:48:49.613Z,7.70
2017-10-12T02:51:18.135Z,7.90
2017-10-12T02:53:47.368Z,7.90
2017-10-12T02:56:15.853Z,7.80
2017-10-12T02:58:43.979Z,7.90
2017-10-12T03:01:12.309Z,7.80
2017-10-12T03:03:40.765Z,7.80
2017-10-12T03:06:10.007Z,7.70
2017-10-12T03:08:38.530Z,7.80
2017-10-12T03:11:07.762Z,7.70
2017-10-12T03:13:36.367Z,7.80
2017-10-12T03:16:04.850Z,7.80
2017-10-12T03:18:33.321Z,7.80
2017-10-12T03:21:01.788Z,7.80
2017-10-12T03:23:30.416Z,7.80
2017-10-12T03:25:58.872Z,7.80
2017-10-12T03:28:27.356Z,7.70
2017-10-12T03:30:55.821Z,7.70
2017-10-12T03:33:24.106Z,7.70
2017-10-12T03:35:52.399Z,7.90
2017-10-12T03:38:20.886Z,8.10
2017-10-12T03:40:49.151Z,8.30
2017-10-12T03:43:17.079Z,8.20
2017-10-12T03:45:45.367Z,8.20
2017-10-12T03:48:14.402Z,8.30
2017-10-12T03:50:42.176Z,8.30
2017-10-12T03:53:10.631Z,8.30
2017-10-12T03:55:39.116Z,8.50
2017-10-12T03:58:07.592Z,8.50
2017-10-12T04:00:36.038Z,8.50
2017-10-12T04:03:04.538Z,8.50
2017-10-12T04:05:33.779Z,8.90
2017-10-12T04:08:02.239Z,8.80
2017-10-12T04:10:30.711Z,9.10
2017-10-12T04:12:59.959Z,9.20
2017-10-12T04:15:28.428Z,9.30
2017-10-12T04:17:56.900Z,9.30
2017-10-12T04:20:25.368Z,9.30
2017-10-12T04:22:53.839Z,9.30
2017-10-12T04:25:23.051Z,9.40
2017-10-12T04:27:51.539Z,9.50
2017-10-12T04:30:19.997Z,9.50
2017-10-12T04:32:49.230Z,9.50
2017-10-12T04:35:17.708Z,9.60
2017-10-12T04:37:46.169Z,9.60
2017-10-12T04:40:15.412Z,9.80
2017-10-12T04:42:44.479Z,9.90
2017-10-12T04:45:12.943Z,10.00
2017-10-12T04:47:42.174Z,10.00
2017-10-12T04:50:10.724Z,10.00
2017-10-12T04:52:39.984Z,10.20
2017-10-12T04:55:08.846Z,10.10
2017-10-12T04:57:37.324Z,10.10
2017-10-12T05:00:05.597Z,10.10
2017-10-12T05:02:34.202Z,10.20
2017-10-12T05:05:02.838Z,10.20
2017-10-12T05:07:31.320Z,10.20
2017-10-12T05:10:00.592Z,10.10
2017-10-12T05:12:29.452Z,10.20
2017-10-12T05:14:58.705Z,10.30
2017-10-12T05:17:27.167Z,10.40
2017-10-12T05:19:55.648Z,10.30
2017-10-12T05:22:23.931Z,10.30
2017-10-12T05:24:53.279Z,10.30
2017-10-12T05:27:22.487Z,10.40
2017-10-12T05:29:50.939Z,10.50
2017-10-12T05:32:19.420Z,10.70
2017-10-12T05:34:47.955Z,10.90
2017-10-12T05:37:16.415Z,10.80
2017-10-12T05:39:45.639Z,10.80
2017-10-12T05:42:14.099Z,10.90
2017-10-12T05:44:42.559Z,11.00
2017-10-12T05:47:11.811Z,11.10
2017-10-12T05:49:40.349Z,11.10
2017-10-12T05:52:09.583Z,11.10
2017-10-12T05:54:37.864Z,11.10
2017-10-12T05:57:06.344Z,11.10
2017-10-12T05:59:34.791Z,11.10
2017-10-12T06:02:04.029Z,11.20
2017-10-12T06:04:32.306Z,11.30
2017-10-12T06:07:00.759Z,11.30
2017-10-12T06:09:29.816Z,11.40
2017-10-12T06:11:58.271Z,11.50
2017-10-12T06:14:26.562Z,11.60
2017-10-12T06:16:55.007Z,11.80
2017-10-12T06:19:23.522Z,11.80
2017-10-12T06:21:51.975Z,11.90
2017-10-12T06:24:20.448Z,11.90
2017-10-12T06:26:49.679Z,12.00
2017-10-12T06:29:18.131Z,12.00
2017-10-12T06:31:46.740Z,12.20
2017-10-12T06:34:15.200Z,12.20
2017-10-12T06:36:44.455Z,12.30
2017-10-12T06:39:13.075Z,12.50
2017-10-12T06:41:41.768Z,12.50
2017-10-12T06:44:11.008Z,12.50
2017-10-12T06:46:39.862Z,12.60
2017-10-12T06:49:08.780Z,12.60
2017-10-12T06:51:37.280Z,12.80
2017-10-12T06:54:05.410Z,12.80
2017-10-12T06:56:34.716Z,13.00
2017-10-12T06:59:03.949Z,13.10
2017-10-12T07:01:33.239Z,13.20
2017-10-12T07:04:01.526Z,13.10
2017-10-12T07:06:29.997Z,13.10
2017-10-12T07:08:58.464Z,13.10
2017-10-12T07:11:26.972Z,13.10
2017-10-12T07:13:55.421Z,13.30
2017-10-12T07:16:24.663Z,13.30
2017-10-12T07:18:53.117Z,13.20
2017-10-12T07:21:21.571Z,13.30
2017-10-12T07:23:50.816Z,13.40
2017-10-12T07:26:19.099Z,13.50
2017-10-12T07:28:47.387Z,13.50
2017-10-12T07:31:15.857Z,13.40
2017-10-12T07:33:44.339Z,13.40
2017-10-12T07:36:13.440Z,13.40
2017-10-12T07:38:41.918Z,13.30
2017-10-12T07:41:10.391Z,13.60
2017-10-12T07:43:38.861Z,13.70
2017-10-12T07:46:07.372Z,13.70
2017-10-12T07:48:35.855Z,13.80
2017-10-12T07:51:04.335Z,13.80
2017-10-12T07:53:32.806Z,14.00
2017-10-12T07:56:01.276Z,14.00
2017-10-12T07:58:29.547Z,14.00
2017-10-12T08:00:58.011Z,14.20
2017-10-12T08:03:27.265Z,14.20
2017-10-12T08:05:55.759Z,14.20
2017-10-12T08:08:24.211Z,14.30
2017-10-12T08:10:52.755Z,14.50
2017-10-12T08:13:22.000Z,14.70
2017-10-12T08:15:50.480Z,14.60
2017-10-12T08:18:18.947Z,14.80
2017-10-12T08:20:47.440Z,14.90
2017-10-12T08:23:15.899Z,15.30
2017-10-12T08:25:44.967Z,15.50
2017-10-12T08:28:13.520Z,15.50
2017-10-12T08:30:41.987Z,15.50
2017-10-12T08:33:10.472Z,15.60
2017-10-12T08:35:38.937Z,15.50
2017-10-12T08:38:07.514Z,15.40
2017-10-12T08:40:35.966Z,15.40
2017-10-12T08:43:04.456Z,15.40
2017-10-12T08:45:32.909Z,15.40
2017-10-12T08:48:01.457Z,15.60
2017-10-12T08:50:29.937Z,15.70
2017-10-12T08:52:58.399Z,15.90
2017-10-12T08:55:27.637Z,16.00
2017-10-12T08:57:56.103Z,16.00
2017-10-12T09:00:24.560Z,16.00
2017-10-12T09:02:53.793Z,16.20
2017-10-12T09:05:22.487Z,16.20
2017-10-12T09:07:50.755Z,16.30
2017-10-12T09:10:19.224Z,16.20
2017-10-12T09:12:47.727Z,16.20
2017-10-12T09:15:16.213Z,16.20
2017-10-12T09:17:44.923Z,16.20
2017-10-12T09:20:13.589Z,16.10
2017-10-12T09:22:42.043Z,15.80
2017-10-12T09:25:11.268Z,15.50
2017-10-12T09:27:39.408Z,15.40
2017-10-12T09:30:08.695Z,15.30
2017-10-12T09:32:37.183Z,15.20
2017-10-12T09:35:06.464Z,15.10
2017-10-12T09:37:34.695Z,15.10
2017-10-12T09:40:03.148Z,15.10
2017-10-12T09:42:31.627Z,14.90
2017-10-12T09:45:00.519Z,15.00
2017-10-12T09:47:29.453Z,15.10
2017-10-12T09:49:57.927Z,15.10
2017-10-12T09:52:26.039Z,15.30
2017-10-12T09:54:54.517Z,15.60
2017-10-12T09:57:23.136Z,15.70
2017-10-12T09:59:52.030Z,15.90
2017-10-12T10:02:20.913Z,15.80
2017-10-12T10:04:49.383Z,15.70
2017-10-12T10:07:17.840Z,15.70
2017-10-12T10:09:46.406Z,15.30
2017-10-12T10:12:14.880Z,15.70
2017-10-12T10:14:43.336Z,15.60
2017-10-12T10:17:12.576Z,15.80
2017-10-12T10:19:41.215Z,15.70
2017-10-12T10:22:10.467Z,15.70
2017-10-12T10:24:39.007Z,15.80
2017-10-12T10:27:08.249Z,15.90
2017-10-12T10:29:36.699Z,15.80
2017-10-12T10:32:05.228Z,15.90
2017-10-12T10:34:33.712Z,15.90
2017-10-12T10:37:02.176Z,15.90
2017-10-12T10:39:30.660Z,16.00
2017-10-12T10:41:59.129Z,16.20
2017-10-12T10:44:27.634Z,16.20
2017-10-12T10:46:56.103Z,16.40
2017-10-12T10:49:24.592Z,16.50
2017-10-12T10:51:53.051Z,16.60
2017-10-12T10:54:21.543Z,16.60
2017-10-12T10:56:50.044Z,16.50
2017-10-12T10:59:19.564Z,16.80
2017-10-12T11:01:48.016Z,16.70
2017-10-12T11:04:16.503Z,17.00
2017-10-12T11:06:44.996Z,17.10
2017-10-12T11:09:13.448Z,17.00
2017-10-12T11:11:42.064Z,17.00
2017-10-12T11:14:11.532Z,17.10
2017-10-12T11:16:40.863Z,16.80
2017-10-12T11:19:09.352Z,16.70
2017-10-12T11:21:37.835Z,16.60
2017-10-12T11:24:06.312Z,16.40
2017-10-12T11:26:34.782Z,16.40
2017-10-12T11:29:03.338Z,16.50
2017-10-12T11:31:32.572Z,16.30
2017-10-12T11:34:01.064Z,16.30
2017-10-12T11:36:29.535Z,16.20
2017-10-12T11:38:57.996Z,16.10
2017-10-12T11:41:27.244Z,15.50
2017-10-12T11:43:55.735Z,15.40
2017-10-12T11:46:24.200Z,15.40
2017-10-12T11:48:52.680Z,15.60
2017-10-12T11:51:21.162Z,15.60
2017-10-12T11:53:49.631Z,15.70
2017-10-12T11:56:18.120Z,15.80
2017-10-12T11:58:46.575Z,15.90
2017-10-12T12:01:15.048Z,15.90
2017-10-12T12:03:44.385Z,15.90
2017-10-12T12:06:12.847Z,15.90
2017-10-12T12:08:41.318Z,16.10
2017-10-12T12:11:10.554Z,16.20
2017-10-12T12:13:39.125Z,16.20
2017-10-12T12:16:07.611Z,16.30
2017-10-12T12:18:36.087Z,16.20
2017-10-12T12:21:04.563Z,16.20
2017-10-12T12:23:33.053Z,16.20
2017-10-12T12:26:01.925Z,16.10
2017-10-12T12:28:31.195Z,15.90
2017-10-12T12:30:59.747Z,15.90
2017-10-12T12:33:28.228Z,15.90
2017-10-12T12:35:56.723Z,15.90
2017-10-12T12:38:25.168Z,15.60
2017-10-12T12:40:53.875Z,15.70
2017-10-12T12:43:24.107Z,15.70
2017-10-12T12:45:52.591Z,15.90
2017-10-12T12:48:21.102Z,16.10
2017-10-12T12:50:49.699Z,16.30
2017-10-12T12:53:18.168Z,16.50
2017-10-12T12:55:46.646Z,16.70
2017-10-12T12:58:15.218Z,16.60
2017-10-12T13:00:43.681Z,16.70
2017-10-12T13:03:12.243Z,16.90
2017-10-12T13:05:40.707Z,17.20
2017-10-12T13:08:09.947Z,17.70
2017-10-12T13:10:38.396Z,17.60
2017-10-12T13:13:07.749Z,17.50
2017-10-12T13:15:35.856Z,17.50
2017-10-12T13:18:03.996Z,17.50
2017-10-12T13:20:32.473Z,17.50
2017-10-12T13:23:00.758Z,17.60
2017-10-12T13:25:29.239Z,17.50
2017-10-12T13:27:57.819Z,17.60
2017-10-12T13:30:26.303Z,17.50
2017-10-12T13:32:54.765Z,17.40
2017-10-12T13:35:23.276Z,17.40
2017-10-12T13:37:51.738Z,17.40
2017-10-12T13:40:20.209Z,17.40
2017-10-12T13:42:48.680Z,17.40
2017-10-12T13:45:17.159Z,17.60
2017-10-12T13:47:46.080Z,17.80
2017-10-12T13:50:14.574Z,17.70
2017-10-12T13:52:43.243Z,17.90
2017-10-12T13:55:11.703Z,17.80
2017-10-12T13:57:40.964Z,17.40
2017-10-12T14:00:09.511Z,17.20
2017-10-12T14:02:37.990Z,17.10
2017-10-12T14:05:06.464Z,17.20
2017-10-12T14:07:34.960Z,17.20
2017-10-12T14:10:03.445Z,17.30
2017-10-12T14:12:31.738Z,17.50
2017-10-12T14:15:00.031Z,17.50
2017-10-12T14:17:28.336Z,17.50
2017-10-12T14:19:57.416Z,17.40
2017-10-12T14:22:26.015Z,17.30
2017-10-12T14:24:55.364Z,17.40
2017-10-12T14:27:24.043Z,17.40
2017-10-12T14:29:52.527Z,17.40
2017-10-12T14:32:21.009Z,17.30
2017-10-12T14:34:49.479Z,17.10
2017-10-12T14:37:17.971Z,16.80
2017-10-12T14:39:46.433Z,16.70
2017-10-12T14:42:15.497Z,16.70
2017-10-12T14:44:43.971Z,16.70
2017-10-12T14:47:12.875Z,16.70
2017-10-12T14:49:41.344Z,16.70
2017-10-12T14:52:10.202Z,16.80
2017-10-12T14:54:38.712Z,16.90
2017-10-12T14:57:07.216Z,17.00
2017-10-12T14:59:35.511Z,16.90
2017-10-12T15:02:04.551Z,16.90
2017-10-12T15:04:32.861Z,16.80
2017-10-12T15:07:02.652Z,16.70
2017-10-12T15:09:31.154Z,16.60
2017-10-12T15:11:59.634Z,16.60
2017-10-12T15:14:28.112Z,16.50
2017-10-12T15:16:56.584Z,16.50
2017-10-12T15:19:25.051Z,16.40
2017-10-12T15:21:53.799Z,16.40
2017-10-12T15:24:23.042Z,16.10
2017-10-12T15:26:51.350Z,16.10
2017-10-12T15:29:20.022Z,16.20
2017-10-12T15:31:48.504Z,16.10
2017-10-12T15:34:17.123Z,16.10
2017-10-12T15:36:46.005Z,16.20
2017-10-12T15:39:14.478Z,16.10
2017-10-12T15:41:42.959Z,16.10
2017-10-12T15:44:11.435Z,16.00
2017-10-12T15:46:39.746Z,15.90
2017-10-12T15:49:08.993Z,15.90
2017-10-12T15:51:37.477Z,15.70
2017-10-12T15:54:05.958Z,15.70
2017-10-12T15:56:34.419Z,15.70
2017-10-12T15:59:02.915Z,15.60
2017-10-12T16:01:31.405Z,15.60
2017-10-12T16:03:59.931Z,15.50
2017-10-12T16:06:28.435Z,15.40
2017-10-12T16:08:57.759Z,15.20
2017-10-12T16:11:26.121Z,15.20
2017-10-12T16:13:55.211Z,15.20
2017-10-12T16:16:23.831Z,15.10
2017-10-12T16:18:52.308Z,15.00
2017-10-12T16:21:21.206Z,14.90
2017-10-12T16:23:49.697Z,14.80
2017-10-12T16:26:18.928Z,14.70
2017-10-12T16:28:47.871Z,14.60
2017-10-12T16:31:16.375Z,14.50
2017-10-12T16:33:44.892Z,14.50
2017-10-12T16:36:13.376Z,14.50
2017-10-12T16:38:41.923Z,14.40
2017-10-12T16:41:10.218Z,14.40
2017-10-12T16:43:39.096Z,14.30
2017-10-12T16:46:07.647Z,14.30
2017-10-12T16:48:36.872Z,14.30
2017-10-12T16:51:05.378Z,14.30
2017-10-12T16:53:34.328Z,14.30
2017-10-12T16:56:03.213Z,14.20
2017-10-12T16:58:31.955Z,14.10
2017-10-12T17:01:01.323Z,14.00
2017-10-12T17:03:30.236Z,13.90
2017-10-12T17:05:58.732Z,13.80
2017-10-12T17:08:27.011Z,13.70
2017-10-12T17:10:56.073Z,13.70
2017-10-12T17:13:24.806Z,13.60
2017-10-12T17:15:54.082Z,13.40
2017-10-12T17:18:22.971Z,13.30
2017-10-12T17:20:52.236Z,13.30
2017-10-12T17:28:19.091Z,13.00
2017-10-12T17:30:47.988Z,12.90
2017-10-12T17:33:16.678Z,12.90
2017-10-12T17:35:45.392Z,12.80
2017-10-12T17:38:14.467Z,12.80
2017-10-12T17:40:44.093Z,12.80
2017-10-12T17:43:13.004Z,12.70
2017-10-12T17:45:41.904Z,12.70
2017-10-12T17:48:11.167Z,12.70
2017-10-12T17:50:40.411Z,12.70
2017-10-12T17:53:09.289Z,12.60
2017-10-12T17:55:37.985Z,12.60
2017-10-12T17:58:07.234Z,12.50
2017-10-12T18:00:36.137Z,12.40
2017-10-12T18:03:05.011Z,12.40
2017-10-12T18:05:34.295Z,12.40
2017-10-12T18:08:03.207Z,12.20
2017-10-12T18:10:32.157Z,12.20
2017-10-12T18:13:01.020Z,12.10
2017-10-12T18:15:29.896Z,12.10
2017-10-12T18:17:59.135Z,12.10
2017-10-12T18:20:28.072Z,12.20
2017-10-12T18:22:56.976Z,12.30
2017-10-12T18:25:25.846Z,12.30
2017-10-12T18:27:55.129Z,12.30
2017-10-12T18:30:24.003Z,12.30
2017-10-12T18:32:52.868Z,12.30
2017-10-12T18:35:22.100Z,12.30
2017-10-12T18:37:50.981Z,12.30
2017-10-12T18:40:19.901Z,12.20
2017-10-12T18:42:49.211Z,12.10
2017-10-12T18:45:18.359Z,12.00
2017-10-12T18:47:47.794Z,11.80
2017-10-12T18:50:17.129Z,11.80
2017-10-12T18:52:46.289Z,11.70
2017-10-12T18:55:15.849Z,11.70
2017-10-12T18:57:45.394Z,11.60
2017-10-12T19:00:14.541Z,11.60
2017-10-12T19:02:43.642Z,11.60
2017-10-12T19:05:12.383Z,11.60
2017-10-12T19:10:10.311Z,11.50
2017-10-12T19:12:39.511Z,11.50
2017-10-12T19:15:08.312Z,11.50
2017-10-12T19:17:37.491Z,11.40
2017-10-12T19:20:06.860Z,11.40
2017-10-12T19:22:36.056Z,11.40
2017-10-12T19:25:05.215Z,11.30
2017-10-12T19:27:34.394Z,11.30
2017-10-12T19:30:03.942Z,11.20
2017-10-12T19:32:32.424Z,11.20
2017-10-12T19:35:01.165Z,11.10
2017-10-12T19:37:30.689Z,11.10
2017-10-12T19:40:00.248Z,10.90
2017-10-12T19:42:29.298Z,10.80
2017-10-12T19:44:58.932Z,10.80
2017-10-12T19:47:28.152Z,10.60
2017-10-12T19:49:57.214Z,10.60
2017-10-12T19:52:26.515Z,10.60
2017-10-12T19:54:55.411Z,10.60
2017-10-12T19:57:24.322Z,10.60
2017-10-12T19:59:53.317Z,10.60
2017-10-12T20:02:22.193Z,10.70
2017-10-12T20:04:51.476Z,10.70
2017-10-12T20:07:20.349Z,10.70
2017-10-12T20:09:49.260Z,10.60
2017-10-12T20:12:18.160Z,10.60
2017-10-12T20:14:47.041Z,10.60
2017-10-12T20:17:16.327Z,10.60
2017-10-12T20:19:45.295Z,10.50
2017-10-12T20:22:14.176Z,10.50
2017-10-12T20:24:43.051Z,10.40
2017-10-12T20:27:11.946Z,10.40
2017-10-12T20:29:40.832Z,10.40
2017-10-12T20:32:10.087Z,10.40
2017-10-12T20:34:38.977Z,10.30
2017-10-12T20:37:08.237Z,10.30
2017-10-12T20:39:37.113Z,10.20
2017-10-12T20:44:34.960Z,10.20
2017-10-12T20:47:04.308Z,10.10
2017-10-12T20:49:33.592Z,10.20
2017-10-12T20:52:02.474Z,10.20
2017-10-12T20:54:31.720Z,10.10
2017-10-12T20:57:00.959Z,10.10
2017-10-12T20:59:29.665Z,10.10
2017-10-12T21:01:58.572Z,10.00
2017-10-12T21:04:27.475Z,10.10
2017-10-12T21:06:56.378Z,10.10
2017-10-12T21:09:25.255Z,10.10
2017-10-12T21:11:54.150Z,10.00
2017-10-12T21:14:23.031Z,9.90
2017-10-12T21:16:52.251Z,9.90
2017-10-12T21:19:21.131Z,9.90
2017-10-12T21:21:50.023Z,9.90
2017-10-12T21:24:18.961Z,10.00
2017-10-12T21:26:47.855Z,10.00
2017-10-12T21:29:17.100Z,10.10
2017-10-12T21:31:45.988Z,10.10
2017-10-12T21:34:14.863Z,10.10
2017-10-12T21:36:43.746Z,10.20
2017-10-12T21:39:12.973Z,10.20
2017-10-12T21:41:41.873Z,10.10
2017-10-12T21:44:11.093Z,10.00
2017-10-12T21:46:39.678Z,10.00
2017-10-12T21:49:08.159Z,10.00
2017-10-12T21:51:36.751Z,10.00
2017-10-12T21:54:05.279Z,10.00
2017-10-12T21:56:33.780Z,10.00
2017-10-12T21:59:03.031Z,9.90
2017-10-12T22:01:31.520Z,9.90
2017-10-12T22:04:00.106Z,9.80
2017-10-12T22:06:28.588Z,9.60
2017-10-12T22:08:57.095Z,9.60
2017-10-12T22:11:25.584Z,9.60
2017-10-12T22:13:55.574Z,9.50
2017-10-12T22:16:25.058Z,9.60
2017-10-12T22:18:53.523Z,9.60
2017-10-12T22:21:22.766Z,9.60
2017-10-12T22:23:51.360Z,9.50
2017-10-12T22:26:19.823Z,9.50
2017-10-12T22:28:48.295Z,9.50
2017-10-12T22:31:16.739Z,9.50
2017-10-12T22:33:45.980Z,9.40
2017-10-12T22:36:14.558Z,9.40
2017-10-12T22:38:43.051Z,9.40
2017-10-12T22:41:10.812Z,9.30
2017-10-12T22:43:39.280Z,9.30
2017-10-12T22:46:07.911Z,9.30
2017-10-12T22:48:36.380Z,9.30
2017-10-12T22:51:05.041Z,9.30
2017-10-12T22:53:33.499Z,9.30
2017-10-12T22:56:02.842Z,9.30
2017-10-12T22:58:31.303Z,9.20
2017-10-12T23:00:59.812Z,9.20
2017-10-12T23:03:29.284Z,9.10
2017-10-12T23:05:57.735Z,9.20
2017-10-12T23:08:26.983Z,9.10
2017-10-12T23:10:55.473Z,9.10
2017-10-12T23:13:23.931Z,9.10
2017-10-12T23:15:52.803Z,9.10
2017-10-12T23:18:22.150Z,9.00
2017-10-12T23:20:50.624Z,9.00
2017-10-12T23:23:19.099Z,9.00
2017-10-12T23:25:47.601Z,9.00
2017-10-12T23:28:16.097Z,9.10
2017-10-12T23:30:44.557Z,9.00
2017-10-12T23:33:13.047Z,9.00
2017-10-12T23:35:41.535Z,9.00
2017-10-12T23:38:10.098Z,9.00
2017-10-12T23:40:38.577Z,9.00
2017-10-12T23:43:07.043Z,9.00
2017-10-12T23:45:35.965Z,9.00
2017-10-12T23:48:04.566Z,8.90
2017-10-12T23:50:33.039Z,9.00
2017-10-12T23:53:01.527Z,9.00
2017-10-12T23:55:29.995Z,9.00
2017-10-12T23:57:58.468Z,8.90
